Station History

Weather Underground - logo

Station Historical Data
Daily Summary for March 2, 2018 Units:  Metric    English   Both
« Previous Day
Next Day »
Daily Weekly Monthly Yearly Custom
  High: Low: Average:
Temperature: 16.4 °C 8.8 °C 11.4 °C
Dew Point: 10.4 °C 7.6 °C 9 °C
Humidity: 96 % 58 % 86 %
Wind Speed: 13 km/h 0 km/h 3.2 km/h
Wind Gust: 13 km/h - -
Wind:- - SSE
Pressure: 1017.5 hPa 1014.1 hPa -
Precipitation: 14.22 mm    
Historical Graphs
 
 
Tabular Data for March 2, 2018
Time Temperature Dew Point Pressure Wind Wind Speed Wind Gust Humidity Rainfall Rate (Hourly)
00:04 10.7 °C 9.2 °C 1014.4 hPa ESE 3.7 km/h 3.7 km/h 90 % 0.76 mm
00:09 10.7 °C 9.2 °C 1014.4 hPa SE 5.6 km/h 5.6 km/h 90 % 0.76 mm
00:14 10.8 °C 9.3 °C 1014.1 hPa SE 6.4 km/h 6.4 km/h 90 % 0.76 mm
00:19 10.9 °C 9.2 °C 1014.4 hPa East 5.6 km/h 5.6 km/h 89 % 0.76 mm
00:24 10.8 °C 9.1 °C 1014.1 hPa East 1.9 km/h 1.9 km/h 89 % 0.76 mm
00:29 10.8 °C 9.2 °C 1014.1 hPa ESE 5.6 km/h 5.6 km/h 90 % 0.51 mm
00:34 10.8 °C 9.2 °C 1014.1 hPa SE 5.6 km/h 5.6 km/h 90 % 0.51 mm
00:39 10.8 °C 9.1 °C 1014.1 hPa ESE 5.6 km/h 5.6 km/h 89 % 0.51 mm
00:44 10.8 °C 9.1 °C 1014.1 hPa SSE 9.3 km/h 9.3 km/h 89 % 0.25 mm
00:49 10.8 °C 9.1 °C 1014.1 hPa East 1.9 km/h 1.9 km/h 89 % 0.25 mm
00:54 10.8 °C 9.1 °C 1014.1 hPa East 3.7 km/h 3.7 km/h 89 % 0.25 mm
00:59 10.8 °C 9.1 °C 1014.1 hPa SSE 3.7 km/h 3.7 km/h 89 % 0.51 mm
01:04 10.8 °C 9.1 °C 1014.1 hPa SSE 1.9 km/h 1.9 km/h 89 % 0.51 mm
01:09 10.8 °C 9.2 °C 1014.1 hPa ESE 1.9 km/h   90 % 0.25 mm
01:14 10.7 °C 9.2 °C 1014.1 hPa ESE 1.9 km/h   90 % 0.51 mm
01:19 10.7 °C 9.1 °C 1014.4 hPa Calm     90 % 0.51 mm
01:24 10.6 °C 9.2 °C 1014.4 hPa Calm     91 % 0.76 mm
01:29 10.6 °C 9.2 °C 1014.8 hPa Calm     91 % 1.02 mm
01:34 10.5 °C 9.3 °C 1015.1 hPa Calm     92 % 1.27 mm
01:39 10.4 °C 9.2 °C 1014.8 hPa Calm     92 % 1.78 mm
01:44 10.4 °C 9.3 °C 1014.8 hPa Calm     93 % 2.03 mm
01:49 10.3 °C 9.3 °C 1014.4 hPa SE 3.7 km/h 3.7 km/h 93 % 2.29 mm
01:54 10.3 °C 9.3 °C 1014.8 hPa South 1.9 km/h 1.9 km/h 93 % 2.29 mm
01:59 10.3 °C 9.3 °C 1014.8 hPa SE 1.9 km/h 1.9 km/h 93 % 2.03 mm
02:04 10.3 °C 9.3 °C 1014.8 hPa SSE 5.6 km/h 5.6 km/h 93 % 2.03 mm
02:09 10.3 °C 9.3 °C 1014.8 hPa SE 1.9 km/h 1.9 km/h 93 % 2.29 mm
02:14 10.3 °C 9.3 °C 1014.8 hPa SSE 3.7 km/h 3.7 km/h 93 % 2.54 mm
02:19 10.3 °C 9.3 °C 1014.8 hPa SE 1.6 km/h 1.8 km/h 93 % 2.54 mm
02:24 10.3 °C 9.3 °C 1015.1 hPa SSE 1.9 km/h   93 % 2.54 mm
02:29 10.3 °C 9.3 °C 1015.5 hPa West 1.9 km/h 1.9 km/h 93 % 2.54 mm
02:34 10.3 °C 9.3 °C 1015.5 hPa SE 5.6 km/h 5.6 km/h 93 % 3.3 mm
02:39 10.3 °C 9.3 °C 1015.1 hPa SSE 5.6 km/h 5.6 km/h 94 % 3.56 mm
02:44 10.2 °C 9.3 °C 1014.8 hPa SE 1.9 km/h 1.9 km/h 94 % 4.32 mm
02:49 10.2 °C 9.2 °C 1014.8 hPa Calm     94 % 4.32 mm
02:54 10.2 °C 9.2 °C 1014.8 hPa SSE 1.9 km/h 1.9 km/h 94 % 4.57 mm
02:59 10.1 °C 9.2 °C 1014.8 hPa Calm     94 % 4.57 mm
03:04 10.1 °C 9.2 °C 1014.8 hPa SSE 1.9 km/h 1.9 km/h 94 % 5.08 mm
03:09 10.1 °C 9.2 °C 1015.1 hPa SSE 5.6 km/h 5.6 km/h 94 % 5.08 mm
03:19 10.1 °C 9.3 °C 1015.1 hPa SSE 3.7 km/h 3.7 km/h 95 % 5.59 mm
03:24 10.1 °C 9.3 °C 1015.5 hPa Calm     95 % 5.59 mm
03:29 10.1 °C 9.3 °C 1015.5 hPa Calm     95 % 6.1 mm
03:34 10.1 °C 9.3 °C 1015.8 hPa Calm     95 % 5.84 mm
03:39 10.1 °C 9.3 °C 1015.5 hPa SE 3.7 km/h 3.7 km/h 95 % 5.59 mm
03:44 10.1 °C 9.3 °C 1015.5 hPa SE 5.6 km/h 5.6 km/h 95 % 4.83 mm
03:49 10.1 °C 9.3 °C 1015.1 hPa SE 5.6 km/h 5.6 km/h 95 % 4.83 mm
03:54 10.1 °C 9.3 °C 1015.5 hPa SE 1.9 km/h 1.9 km/h 95 % 4.57 mm
03:59 10.1 °C 9.3 °C 1015.5 hPa SE 1.9 km/h   95 % 4.83 mm
04:04 10.1 °C 9.3 °C 1015.8 hPa SE 1.9 km/h   95 % 4.57 mm
04:09 10.1 °C 9.3 °C 1015.8 hPa SE 3.7 km/h 3.7 km/h 95 % 4.83 mm
04:14 10.1 °C 9.3 °C 1015.8 hPa ESE 5.6 km/h 5.6 km/h 95 % 4.06 mm
04:19 10.1 °C 9.3 °C 1015.8 hPa ESE 3.7 km/h 3.7 km/h 95 % 3.81 mm
04:25 10.1 °C 9.3 °C 1015.5 hPa SE 5.6 km/h 5.6 km/h 95 % 3.3 mm
04:30 10.1 °C 9.3 °C 1015.5 hPa SE 5.6 km/h 5.6 km/h 95 % 2.79 mm
04:35 10.1 °C 9.3 °C 1015.5 hPa SE 5.6 km/h 5.6 km/h 95 % 2.03 mm
04:40 10 °C 9.2 °C 1015.5 hPa SE 3.7 km/h 3.7 km/h 95 % 1.52 mm
04:45 10 °C 9.2 °C 1015.8 hPa SE 1.9 km/h 1.9 km/h 95 % 1.27 mm
04:50 10 °C 9.4 °C 1015.8 hPa SE 3.7 km/h 3.7 km/h 96 % 1.02 mm
04:55 10 °C 9.4 °C 1015.8 hPa East 1.9 km/h   96 % 1.27 mm
05:00 10 °C 9.4 °C 1015.8 hPa East 1.9 km/h 1.9 km/h 96 % 1.27 mm
05:05 10 °C 9.4 °C 1016.1 hPa East 1.9 km/h 1.9 km/h 96 % 1.02 mm
05:10 9.9 °C 9.3 °C 1015.8 hPa East 3.7 km/h 3.7 km/h 96 % 0.76 mm
05:15 9.9 °C 9.3 °C 1016.1 hPa East 3.7 km/h 3.7 km/h 96 % 0.76 mm
05:20 9.9 °C 9.3 °C 1016.1 hPa SSW 1.9 km/h 1.9 km/h 96 % 0.76 mm
05:25 9.9 °C 9.3 °C 1016.1 hPa SE 5.6 km/h 5.6 km/h 96 % 0.76 mm
05:30 9.9 °C 9.3 °C 1016.1 hPa SE 8 km/h 8 km/h 96 % 0.76 mm
05:35 9.9 °C 9.3 °C 1016.1 hPa SSE 6.4 km/h 6.4 km/h 96 % 0.76 mm
05:40 9.8 °C 9.2 °C 1016.1 hPa SSE 3.7 km/h 3.7 km/h 96 % 0.76 mm
05:45 9.8 °C 9.2 °C 1016.1 hPa SE 3.7 km/h 3.7 km/h 96 % 0.76 mm
05:50 9.7 °C 9.1 °C 1016.1 hPa SSE 7.4 km/h 7.4 km/h 96 % 0.76 mm
05:55 9.7 °C 8.9 °C 1016.1 hPa ESE 5.6 km/h 5.6 km/h 95 % 0.51 mm
06:00 9.7 °C 8.9 °C 1016.1 hPa East 3.7 km/h 3.7 km/h 95 % 0.25 mm
06:05 9.6 °C 8.8 °C 1016.1 hPa SE 1.9 km/h 1.9 km/h 95 % 0.25 mm
06:10 9.6 °C 8.8 °C 1016.1 hPa ENE 1.6 km/h 1.6 km/h 95 % 0 mm
06:15 9.7 °C 9.1 °C 1016.1 hPa ESE 3.2 km/h 3.2 km/h 96 % 0 mm
06:20 9.7 °C 9.1 °C 1016.5 hPa ESE 5.6 km/h 5.6 km/h 96 % 0 mm
06:25 9.7 °C 9.1 °C 1016.5 hPa ESE 9.7 km/h 9.7 km/h 96 % 0 mm
06:30 9.7 °C 8.9 °C 1016.5 hPa SE 9.3 km/h 9.3 km/h 95 % 0 mm
06:35 9.7 °C 8.9 °C 1016.5 hPa ENE 5.6 km/h 5.6 km/h 95 % 0 mm
06:40 9.7 °C 8.9 °C 1016.5 hPa SE 7.4 km/h 7.4 km/h 95 % 0 mm
06:45 9.7 °C 8.9 °C 1016.5 hPa SE 7.4 km/h 7.4 km/h 95 % 0 mm
06:50 9.7 °C 8.9 °C 1016.5 hPa ENE 5.6 km/h 5.6 km/h 95 % 0 mm
06:55 9.7 °C 8.9 °C 1016.5 hPa SE 9.3 km/h 9.3 km/h 95 % 0 mm
07:00 9.6 °C 8.8 °C 1016.5 hPa SSE 5.6 km/h 5.6 km/h 95 % 0 mm
07:05 9.6 °C 8.8 °C 1016.5 hPa SE 7.4 km/h 7.4 km/h 95 % 0 mm
07:10 9.6 °C 8.8 °C 1016.5 hPa SE 5.6 km/h 5.6 km/h 95 % 0 mm
07:15 9.6 °C 8.6 °C 1016.8 hPa SSE 9.3 km/h 9.3 km/h 94 % 0 mm
07:20 9.6 °C 8.6 °C 1016.8 hPa SE 13 km/h 13 km/h 94 % 0 mm
07:25 9.6 °C 8.6 °C 1016.8 hPa East 1.9 km/h 1.9 km/h 94 % 0 mm
07:30 9.6 °C 8.7 °C 1016.8 hPa ENE 3.7 km/h   94 % 0 mm
07:35 9.7 °C 8.8 °C 1016.8 hPa East 3.7 km/h 3.7 km/h 94 % 0 mm
07:40 9.8 °C 8.9 °C 1016.8 hPa SE 5.6 km/h 5.6 km/h 94 % 0 mm
07:45 9.9 °C 8.9 °C 1016.8 hPa ENE 5.6 km/h 5.6 km/h 94 % 0 mm
07:50 9.9 °C 9 °C 1017.2 hPa SSE 8 km/h 8 km/h 94 % 0 mm
07:55 10 °C 9.1 °C 1017.2 hPa SSE 3.7 km/h 3.7 km/h 94 % 0 mm
08:00 10.1 °C 9.1 °C 1017.2 hPa SE 5.6 km/h 5.6 km/h 94 % 0 mm
08:05 10.1 °C 9.2 °C 1017.2 hPa SSE 4.8 km/h 4.8 km/h 94 % 0 mm
08:10 10.2 °C 9.2 °C 1017.2 hPa East 7.4 km/h 7.4 km/h 94 % 0 mm
08:15 10.2 °C 9.3 °C 1017.2 hPa East 5.6 km/h 5.6 km/h 94 % 0 mm
08:20 10.3 °C 9.2 °C 1017.2 hPa East 9.3 km/h 9.3 km/h 93 % 0 mm
08:25 10.4 °C 9.3 °C 1017.2 hPa ENE 5.6 km/h 5.6 km/h 93 % 0 mm
08:30 10.5 °C 9.3 °C 1017.2 hPa ENE 3.2 km/h 3.2 km/h 92 % 0 mm
08:35 10.6 °C 9.3 °C 1017.2 hPa East 7.4 km/h 7.4 km/h 92 % 0 mm
08:41 10.7 °C 9.4 °C 1016.8 hPa East 5.6 km/h 5.6 km/h 92 % 0 mm
08:46 10.7 °C 9.5 °C 1017.2 hPa East 3.7 km/h 3.7 km/h 92 % 0 mm
08:51 10.7 °C 9.5 °C 1017.2 hPa ENE 1.6 km/h 1.6 km/h 92 % 0 mm
08:56 10.7 °C 9.5 °C 1017.2 hPa East 5.6 km/h 5.6 km/h 92 % 0 mm
09:01 10.8 °C 9.6 °C 1017.2 hPa East 3.7 km/h 3.7 km/h 92 % 0 mm
09:06 10.8 °C 9.6 °C 1017.2 hPa NE 3.7 km/h 3.7 km/h 92 % 0 mm
09:11 10.9 °C 9.8 °C 1017.2 hPa East 5.6 km/h 5.6 km/h 93 % 0 mm
09:16 11.1 °C 9.8 °C 1017.2 hPa SSE 7.4 km/h 7.4 km/h 92 % 0 mm
09:21 11.3 °C 10 °C 1017.5 hPa East 5.6 km/h 5.6 km/h 92 % 0 mm
09:26 11.3 °C 10.1 °C 1017.2 hPa SE 8 km/h 8 km/h 92 % 0 mm
09:31 11.4 °C 9.9 °C 1017.5 hPa East 1.9 km/h 1.9 km/h 91 % 0 mm
09:36 11.6 °C 10.1 °C 1017.5 hPa East 4.8 km/h 4.8 km/h 91 % 0 mm
09:41 11.6 °C 10.2 °C 1017.5 hPa SSE 3.7 km/h 3.7 km/h 91 % 0 mm
09:46 11.7 °C 10.1 °C 1017.5 hPa SW 4.8 km/h 4.8 km/h 90 % 0 mm
09:51 11.7 °C 10.1 °C 1017.5 hPa SSE 5.6 km/h 5.6 km/h 90 % 0 mm
09:56 11.6 °C 10 °C 1017.5 hPa SSE 5.6 km/h 5.6 km/h 90 % 0 mm
10:01 11.6 °C 9.8 °C 1017.2 hPa SSE 5.6 km/h 5.6 km/h 89 % 0 mm
10:06 11.7 °C 10.1 °C 1017.5 hPa SSE 3.7 km/h 3.7 km/h 90 % 0 mm
10:11 11.7 °C 9.9 °C 1017.5 hPa East 8 km/h 8 km/h 89 % 0 mm
10:16 11.7 °C 9.8 °C 1017.5 hPa SSE 3.7 km/h 3.7 km/h 88 % 0 mm
10:21 11.7 °C 9.9 °C 1017.2 hPa SSE 5.6 km/h   89 % 0 mm
10:26 11.8 °C 10 °C 1017.2 hPa SSE 3.7 km/h 3.7 km/h 89 % 0 mm
10:31 11.9 °C 10.1 °C 1017.2 hPa East 3.7 km/h 3.7 km/h 89 % 0 mm
10:36 12 °C 9.9 °C 1017.2 hPa ESE 3.7 km/h 3.7 km/h 87 % 0 mm
10:41 12.2 °C 10.2 °C 1017.2 hPa Calm     88 % 0 mm
10:46 12.3 °C 10.4 °C 1017.2 hPa SW 3.7 km/h 3.7 km/h 88 % 0 mm
10:51 12.4 °C 10.2 °C 1017.2 hPa SSE 1.9 km/h 1.9 km/h 86 % 0 mm
10:56 12.5 °C 10.1 °C 1017.2 hPa South 5.6 km/h 5.6 km/h 85 % 0 mm
11:01 12.6 °C 10.2 °C 1016.8 hPa South 3.7 km/h 3.7 km/h 85 % 0 mm
11:06 12.6 °C 10 °C 1017.2 hPa SSE 5.6 km/h 5.6 km/h 84 % 0 mm
11:11 12.6 °C 10 °C 1016.8 hPa ESE 1.9 km/h 1.9 km/h 84 % 0 mm
11:16 12.7 °C 10.2 °C 1017.2 hPa East 5.6 km/h 5.6 km/h 85 % 0 mm
11:21 12.7 °C 10.1 °C 1017.2 hPa SE 1.9 km/h 1.9 km/h 84 % 0 mm
11:26 12.8 °C 10.2 °C 1016.8 hPa SSE 3.7 km/h 3.7 km/h 84 % 0 mm
11:31 13 °C 10.2 °C 1016.8 hPa SSW 1.9 km/h 1.9 km/h 83 % 0 mm
11:36 13.2 °C 10.2 °C 1016.8 hPa NNW 3.7 km/h 3.7 km/h 82 % 0 mm
11:41 13.4 °C 10.2 °C 1016.8 hPa South 5.6 km/h 5.6 km/h 81 % 0 mm
11:46 13.5 °C 9.9 °C 1017.2 hPa NW 3.7 km/h 3.7 km/h 79 % 0 mm
11:51 13.5 °C 10.1 °C 1016.8 hPa SW 3.7 km/h 3.7 km/h 80 % 0 mm
11:56 13.2 °C 10.2 °C 1016.8 hPa NW 5.6 km/h 5.6 km/h 82 % 0 mm
12:01 13.2 °C 10.2 °C 1016.8 hPa NW 5.6 km/h 5.6 km/h 82 % 0 mm
12:06 13.1 °C 9.5 °C 1016.8 hPa NW 5.6 km/h 5.6 km/h 79 % 0 mm
12:12 13.1 °C 9.1 °C 1016.8 hPa NW 5.6 km/h 5.6 km/h 77 % 0 mm
12:17 12.9 °C 9 °C 1016.8 hPa NNE 5.6 km/h 5.6 km/h 77 % 0 mm
12:22 13.1 °C 8.9 °C 1016.8 hPa NW 3.7 km/h 3.7 km/h 76 % 0 mm
12:27 13.5 °C 9.3 °C 1016.8 hPa NW 3.7 km/h 3.7 km/h 76 % 0 mm
12:32 13.9 °C 9.3 °C 1016.5 hPa WNW 5.6 km/h 5.6 km/h 74 % 0 mm
12:37 14.2 °C 9.2 °C 1016.5 hPa NW 3.7 km/h 3.7 km/h 72 % 0 mm
12:42 14.3 °C 9.3 °C 1016.5 hPa NW 3.2 km/h 3.2 km/h 72 % 0 mm
12:47 14.2 °C 8.8 °C 1016.5 hPa WNW 1.9 km/h 1.9 km/h 70 % 0 mm
12:52 14.2 °C 9.4 °C 1016.1 hPa NNW 1.9 km/h 1.9 km/h 73 % 0 mm
12:57 14.3 °C 9.3 °C 1016.1 hPa NW 3.7 km/h 3.7 km/h 72 % 0 mm
13:02 14.5 °C 9.3 °C 1016.1 hPa WNW 3.7 km/h 3.7 km/h 71 % 0 mm
13:07 14.6 °C 9.2 °C 1016.1 hPa Calm     70 % 0 mm
13:12 14.7 °C 9.5 °C 1016.1 hPa Calm   0.5 km/h 71 % 0 mm
13:17 14.8 °C 9.2 °C 1016.1 hPa Calm     69 % 0 mm
13:22 14.8 °C 9 °C 1016.1 hPa West 3.7 km/h 3.7 km/h 68 % 0 mm
13:27 14.8 °C 9.6 °C 1015.8 hPa SSE 1.6 km/h 1.6 km/h 71 % 0 mm
13:32 15.4 °C 10.4 °C 1015.8 hPa Calm     72 % 0 mm
13:37 15.8 °C 9.4 °C 1015.8 hPa NW 1.9 km/h 1.9 km/h 66 % 0 mm
13:42 16.2 °C 9.6 °C 1015.8 hPa SSE 3.7 km/h 3.7 km/h 65 % 0 mm
13:47 16.1 °C 9.2 °C 1015.8 hPa SSW 3.7 km/h   64 % 0 mm
13:52 15.9 °C 9.6 °C 1015.8 hPa Calm   0.2 km/h 66 % 0 mm
13:57 15.9 °C 9.1 °C 1015.8 hPa SSE 3.7 km/h 3.7 km/h 64 % 0 mm
14:02 15.9 °C 9.1 °C 1015.8 hPa Calm   0.2 km/h 64 % 0 mm
14:07 15.8 °C 9.3 °C 1015.8 hPa SSE 1.6 km/h   65 % 0 mm
14:12 15.9 °C 9.1 °C 1015.8 hPa South 5.6 km/h 5.6 km/h 64 % 0 mm
14:18 15.9 °C 9.1 °C 1015.8 hPa East 1.9 km/h 1.9 km/h 64 % 0 mm
14:23 16 °C 9.4 °C 1015.5 hPa SSE 3.7 km/h 3.7 km/h 65 % 0 mm
14:27 16.3 °C 9.5 °C 1015.5 hPa SE 6.4 km/h 6.4 km/h 64 % 0 mm
14:33 16.4 °C 9.1 °C 1015.5 hPa SE 5.6 km/h 5.6 km/h 62 % 0 mm
14:38 16.3 °C 9.5 °C 1015.5 hPa ESE 5.6 km/h 5.6 km/h 64 % 0 mm
14:43 16.2 °C 9.2 °C 1015.5 hPa SE 5.6 km/h 5.6 km/h 63 % 0 mm
14:48 16.3 °C 9.5 °C 1015.5 hPa Calm     64 % 0 mm
14:53 16.2 °C 8.9 °C 1015.5 hPa SE 5.6 km/h 5.6 km/h 62 % 0 mm
14:58 15.9 °C 8.7 °C 1015.1 hPa SSE 1.9 km/h 1.9 km/h 62 % 0 mm
15:03 15.8 °C 7.6 °C 1015.1 hPa ESE 3.7 km/h 3.7 km/h 58 % 0 mm
15:08 15.7 °C 8 °C 1015.1 hPa SE 1.9 km/h   60 % 0 mm
15:13 15.7 °C 7.9 °C 1015.1 hPa Calm     60 % 0 mm
15:18 15.6 °C 8.1 °C 1015.1 hPa South 3.7 km/h 3.7 km/h 61 % 0 mm
15:23 15.6 °C 8.3 °C 1015.1 hPa SSE 3.7 km/h 3.7 km/h 62 % 0 mm
15:28 15.5 °C 7.8 °C 1015.1 hPa NW 1.9 km/h 1.9 km/h 60 % 0 mm
15:33 15.5 °C 8 °C 1015.1 hPa SSE 1.9 km/h   61 % 0 mm
15:38 15.5 °C 8.2 °C 1015.1 hPa SSE 1.9 km/h 1.9 km/h 62 % 0 mm
15:43 15.4 °C 7.7 °C 1015.1 hPa NW 5.6 km/h 5.6 km/h 60 % 0 mm
15:48 15.4 °C 7.9 °C 1015.1 hPa NW 1.9 km/h 1.9 km/h 61 % 0 mm
15:53 15.3 °C 7.8 °C 1015.1 hPa NNW 1.9 km/h 1.9 km/h 61 % 0 mm
15:58 15.2 °C 8.2 °C 1015.1 hPa West 5.6 km/h 5.6 km/h 63 % 0 mm
16:03 14.9 °C 8.8 °C 1015.1 hPa NW 8 km/h 8 km/h 67 % 0 mm
16:08 14.4 °C 8.6 °C 1015.1 hPa NNW 7.4 km/h 7.4 km/h 68 % 0 mm
16:13 14.2 °C 8.6 °C 1015.1 hPa NW 5.6 km/h 5.6 km/h 69 % 0 mm
16:18 14 °C 8.4 °C 1015.1 hPa NNW 5.6 km/h 5.6 km/h 69 % 0 mm
16:23 13.8 °C 8.6 °C 1015.1 hPa NW 4.8 km/h 4.8 km/h 71 % 0 mm
16:28 13.6 °C 8.8 °C 1015.5 hPa NNW 5.6 km/h 5.6 km/h 73 % 0 mm
16:33 13.4 °C 8.7 °C 1015.5 hPa North 5.6 km/h 5.6 km/h 73 % 0 mm
16:38 13.4 °C 9.1 °C 1015.5 hPa NW 9.3 km/h 9.3 km/h 75 % 0 mm
16:43 13.2 °C 9.7 °C 1015.5 hPa WNW 3.7 km/h 3.7 km/h 79 % 0 mm
16:48 12.8 °C 9.6 °C 1015.5 hPa NW 5.6 km/h 5.6 km/h 81 % 0.25 mm
16:53 12.4 °C 9.6 °C 1015.5 hPa NW 3.7 km/h 3.7 km/h 83 % 0.25 mm
16:58 12.2 °C 9.7 °C 1015.5 hPa West 3.7 km/h 3.7 km/h 85 % 0.25 mm
17:03 12.1 °C 9.8 °C 1015.5 hPa WNW 3.7 km/h 3.7 km/h 86 % 0.25 mm
17:08 12 °C 9.7 °C 1015.5 hPa WNW 3.7 km/h 3.7 km/h 86 % 0.25 mm
17:13 12 °C 9.7 °C 1015.5 hPa NW 1.9 km/h 1.9 km/h 86 % 0.25 mm
17:18 11.9 °C 9.7 °C 1015.5 hPa West 5.6 km/h 5.6 km/h 86 % 0.25 mm
17:23 11.9 °C 9.6 °C 1015.5 hPa WNW 5.6 km/h 5.6 km/h 86 % 0.25 mm
17:28 11.8 °C 9.3 °C 1015.5 hPa SSW 1.9 km/h 1.9 km/h 85 % 0.25 mm
17:33 11.7 °C 9.1 °C 1015.5 hPa Calm     84 % 0.25 mm
17:38 11.6 °C 8.8 °C 1015.5 hPa NNW 5.6 km/h   83 % 0.25 mm
17:43 11.4 °C 9 °C 1015.5 hPa South 1.9 km/h   85 % 0.25 mm
17:48 11.3 °C 8.8 °C 1015.5 hPa South 1.9 km/h 1.9 km/h 85 % 0.25 mm
17:53 11.1 °C 8.6 °C 1015.1 hPa Calm     85 % 0.25 mm
17:58 11 °C 8.7 °C 1015.5 hPa Calm     86 % 0.25 mm
18:03 10.9 °C 9 °C 1015.5 hPa Calm     88 % 0.25 mm
18:08 10.8 °C 8.9 °C 1015.5 hPa Calm     88 % 0.25 mm
18:13 10.8 °C 8.7 °C 1015.8 hPa ESE 1.9 km/h 1.9 km/h 87 % 0.25 mm
18:18 10.7 °C 8.8 °C 1015.8 hPa Calm     88 % 0.25 mm
18:23 10.7 °C 8.7 °C 1015.8 hPa ESE 1.9 km/h 1.9 km/h 87 % 0.25 mm
18:28 10.7 °C 8.7 °C 1015.5 hPa SE 1.9 km/h 1.9 km/h 87 % 0.25 mm
18:33 10.6 °C 8.6 °C 1015.8 hPa SE 1.9 km/h 1.9 km/h 87 % 0.25 mm
18:38 10.5 °C 8.4 °C 1015.8 hPa East 1.9 km/h 1.9 km/h 87 % 0.25 mm
18:43 10.4 °C 8.5 °C 1015.5 hPa East 1.9 km/h   88 % 0.25 mm
18:48 10.3 °C 8.4 °C 1015.5 hPa East 1.9 km/h 1.9 km/h 88 % 0 mm
18:53 10.3 °C 8.4 °C 1015.5 hPa ESE 3.7 km/h 3.7 km/h 88 % 0 mm
18:58 10.3 °C 8.4 °C 1015.8 hPa ESE 1.9 km/h   88 % 0 mm
19:03 10.3 °C 8.4 °C 1015.8 hPa SE 3.7 km/h 3.7 km/h 88 % 0 mm
19:08 10.3 °C 8.4 °C 1015.8 hPa East 1.6 km/h 1.6 km/h 88 % 0 mm
19:13 10.4 °C 8.3 °C 1015.8 hPa ESE 3.2 km/h 3.2 km/h 87 % 0 mm
19:18 10.4 °C 8.4 °C 1015.5 hPa Calm     87 % 0 mm
19:23 10.4 °C 8.2 °C 1015.5 hPa ESE 1.9 km/h   86 % 0 mm
19:28 10.4 °C 8.2 °C 1015.5 hPa ESE 1.9 km/h 1.9 km/h 86 % 0 mm
19:34 10.4 °C 8.2 °C 1015.8 hPa ESE 1.9 km/h 1.9 km/h 86 % 0 mm
19:39 10.4 °C 8.2 °C 1015.5 hPa ESE 1.9 km/h   86 % 0 mm
19:44 10.5 °C 8.1 °C 1015.5 hPa ESE 1.9 km/h 1.9 km/h 85 % 0 mm
19:49 10.5 °C 8.1 °C 1015.5 hPa Calm     85 % 0 mm
19:54 10.5 °C 8.1 °C 1015.5 hPa ESE 3.7 km/h 3.7 km/h 85 % 0 mm
19:59 10.6 °C 8.1 °C 1015.5 hPa ESE 1.9 km/h 1.9 km/h 85 % 0 mm
20:04 10.6 °C 8.1 °C 1015.5 hPa ESE 5.6 km/h 5.6 km/h 85 % 0 mm
20:09 10.7 °C 8.2 °C 1015.5 hPa ESE 1.9 km/h 1.9 km/h 85 % 0 mm
20:14 10.7 °C 8.2 °C 1015.5 hPa ESE 1.9 km/h 1.9 km/h 85 % 0 mm
20:19 10.7 °C 8.2 °C 1015.5 hPa Calm     85 % 0 mm
20:24 10.6 °C 8.2 °C 1015.5 hPa SE 1.9 km/h 1.9 km/h 85 % 0 mm
20:29 10.6 °C 8.1 °C 1015.5 hPa SSE 3.7 km/h 3.7 km/h 85 % 0 mm
20:34 10.6 °C 8.1 °C 1015.5 hPa East 1.9 km/h 1.9 km/h 85 % 0 mm
20:39 10.5 °C 8.1 °C 1015.8 hPa SE 1.9 km/h 1.9 km/h 85 % 0 mm
20:44 10.4 °C 8 °C 1015.8 hPa Calm     85 % 0 mm
20:49 10.3 °C 8.1 °C 1015.5 hPa Calm     86 % 0 mm
20:54 10.3 °C 8.1 °C 1015.8 hPa SE 1.9 km/h 1.9 km/h 86 % 0 mm
20:59 10.3 °C 7.9 °C 1015.8 hPa East 1.9 km/h 1.9 km/h 85 % 0 mm
21:04 10.4 °C 8 °C 1015.8 hPa Calm     85 % 0 mm
21:09 10.4 °C 8 °C 1015.8 hPa ENE 1.9 km/h 1.9 km/h 85 % 0 mm
21:14 10.4 °C 8.2 °C 1015.8 hPa ESE 1.9 km/h   86 % 0 mm
21:19 10.3 °C 8.1 °C 1015.8 hPa Calm     86 % 0 mm
21:24 10.1 °C 8.1 °C 1015.8 hPa Calm     87 % 0 mm
21:29 10.1 °C 8.2 °C 1015.8 hPa Calm     88 % 0 mm
21:34 10 °C 8.1 °C 1015.8 hPa Calm     88 % 0 mm
21:39 9.9 °C 8.2 °C 1015.8 hPa Calm     89 % 0 mm
21:44 9.8 °C 8.1 °C 1015.8 hPa Calm     89 % 0 mm
21:49 9.8 °C 8.1 °C 1015.8 hPa Calm     89 % 0 mm
21:54 9.8 °C 8.1 °C 1015.8 hPa Calm     89 % 0 mm
21:59 9.8 °C 8.1 °C 1015.8 hPa Calm     89 % 0 mm
22:04 9.8 °C 8.1 °C 1015.8 hPa Calm     89 % 0 mm
22:09 9.8 °C 8.1 °C 1015.8 hPa SE 1.9 km/h   89 % 0 mm
22:14 9.8 °C 8.1 °C 1015.5 hPa Calm     89 % 0 mm
22:19 9.8 °C 8.1 °C 1015.8 hPa Calm     89 % 0 mm
22:24 9.8 °C 8.1 °C 1015.5 hPa Calm     89 % 0 mm
22:29 9.8 °C 8.2 °C 1015.5 hPa Calm     90 % 0 mm
22:34 9.7 °C 8 °C 1015.5 hPa Calm     89 % 0 mm
22:39 9.7 °C 8.1 °C 1015.5 hPa Calm     90 % 0 mm
22:44 9.6 °C 8 °C 1015.5 hPa Calm     90 % 0 mm
22:49 9.4 °C 7.8 °C 1015.5 hPa Calm     90 % 0 mm
22:54 9.3 °C 7.9 °C 1015.5 hPa Calm     91 % 0 mm
22:59 9.1 °C 7.7 °C 1015.5 hPa Calm     91 % 0 mm
23:04 9.1 °C 7.8 °C 1015.5 hPa Calm     92 % 0 mm
23:09 8.9 °C 7.7 °C 1015.5 hPa Calm     92 % 0 mm
23:14 8.9 °C 7.7 °C 1015.5 hPa Calm     92 % 0 mm
23:19 8.8 °C 7.6 °C 1015.5 hPa Calm     92 % 0 mm
23:24 8.8 °C 7.6 °C 1015.5 hPa Calm     92 % 0 mm
23:29 8.9 °C 7.8 °C 1015.5 hPa Calm     93 % 0 mm
23:34 8.9 °C 7.9 °C 1015.5 hPa Calm     93 % 0 mm
23:39 9.1 °C 8 °C 1015.5 hPa Calm     93 % 0 mm
23:44 9.1 °C 8.1 °C 1015.5 hPa Calm     93 % 0 mm
23:49 9.2 °C 8.1 °C 1015.5 hPa Calm     93 % 0 mm
23:54 9.2 °C 8.2 °C 1015.8 hPa Calm     93 % 0.25 mm
23:59 9.3 °C 8.2 °C 1015.5 hPa Calm     93 % 0.25 mm
Park Place, Exeter, Tulare County, California, USA
Compliments of Weather Underground - 2.75 mb